sensor_id;sensor_type;location;lat;lon;timestamp;pressure;altitude;pressure_sealevel;temperature;humidity
82872;BME280;72646;43.596;1.428;2023-11-19T00:02:07;100392.53;;;19.67;50.86
82872;BME280;72646;43.596;1.428;2023-11-19T00:04:36;100394.19;;;19.68;50.74
82872;BME280;72646;43.596;1.428;2023-11-19T00:07:01;100380.50;;;19.62;50.97
82872;BME280;72646;43.596;1.428;2023-11-19T00:09:29;100397.44;;;19.77;51.13
82872;BME280;72646;43.596;1.428;2023-11-19T00:11:55;100386.84;;;19.74;51.12
82872;BME280;72646;43.596;1.428;2023-11-19T00:14:20;100401.63;;;19.80;51.06
82872;BME280;72646;43.596;1.428;2023-11-19T00:16:46;100384.69;;;19.76;51.09
82872;BME280;72646;43.596;1.428;2023-11-19T00:19:11;100379.00;;;19.71;50.95
82872;BME280;72646;43.596;1.428;2023-11-19T00:21:37;100388.63;;;19.80;50.98
82872;BME280;72646;43.596;1.428;2023-11-19T00:24:02;100393.06;;;19.81;51.19
82872;BME280;72646;43.596;1.428;2023-11-19T00:26:29;100387.22;;;19.78;51.12
82872;BME280;72646;43.596;1.428;2023-11-19T00:28:55;100383.81;;;19.76;51.09
82872;BME280;72646;43.596;1.428;2023-11-19T00:31:21;100380.81;;;19.77;51.19
82872;BME280;72646;43.596;1.428;2023-11-19T00:33:46;100386.22;;;19.84;51.20
82872;BME280;72646;43.596;1.428;2023-11-19T00:36:12;100387.06;;;19.84;51.23
82872;BME280;72646;43.596;1.428;2023-11-19T00:38:38;100375.03;;;19.79;51.03
82872;BME280;72646;43.596;1.428;2023-11-19T00:41:03;100361.41;;;19.77;51.04
82872;BME280;72646;43.596;1.428;2023-11-19T00:43:29;100381.50;;;19.84;51.10
82872;BME280;72646;43.596;1.428;2023-11-19T00:45:54;100372.38;;;19.84;51.10
82872;BME280;72646;43.596;1.428;2023-11-19T00:48:20;100362.13;;;19.84;51.15
82872;BME280;72646;43.596;1.428;2023-11-19T00:50:45;100360.53;;;19.88;51.08
82872;BME280;72646;43.596;1.428;2023-11-19T00:53:11;100361.00;;;19.85;51.04
82872;BME280;72646;43.596;1.428;2023-11-19T00:55:37;100354.41;;;19.86;50.65
82872;BME280;72646;43.596;1.428;2023-11-19T00:58:02;100355.59;;;19.90;50.76
82872;BME280;72646;43.596;1.428;2023-11-19T01:00:28;100342.72;;;19.84;50.65
82872;BME280;72646;43.596;1.428;2023-11-19T01:02:54;100352.81;;;19.90;50.45
82872;BME280;72646;43.596;1.428;2023-11-19T01:05:20;100354.84;;;19.95;50.68
82872;BME280;72646;43.596;1.428;2023-11-19T01:07:47;100365.19;;;19.99;50.41
82872;BME280;72646;43.596;1.428;2023-11-19T01:10:13;100366.28;;;19.98;50.24
82872;BME280;72646;43.596;1.428;2023-11-19T01:12:38;100365.19;;;19.99;50.51
82872;BME280;72646;43.596;1.428;2023-11-19T01:15:05;100361.09;;;20.02;50.25
82872;BME280;72646;43.596;1.428;2023-11-19T01:17:31;100362.88;;;20.08;49.97
82872;BME280;72646;43.596;1.428;2023-11-19T01:19:57;100365.88;;;20.06;49.94
82872;BME280;72646;43.596;1.428;2023-11-19T01:22:22;100363.44;;;20.10;49.71
82872;BME280;72646;43.596;1.428;2023-11-19T01:24:48;100383.09;;;20.20;49.77
82872;BME280;72646;43.596;1.428;2023-11-19T01:27:13;100367.94;;;20.11;49.60
82872;BME280;72646;43.596;1.428;2023-11-19T01:29:39;100362.88;;;20.08;49.76
82872;BME280;72646;43.596;1.428;2023-11-19T01:32:05;100372.16;;;20.13;49.58
82872;BME280;72646;43.596;1.428;2023-11-19T01:34:30;100383.31;;;20.18;49.61
82872;BME280;72646;43.596;1.428;2023-11-19T01:36:56;100387.31;;;20.22;49.45
82872;BME280;72646;43.596;1.428;2023-11-19T01:39:21;100386.34;;;20.17;49.47
82872;BME280;72646;43.596;1.428;2023-11-19T01:41:47;100390.56;;;20.19;49.49
82872;BME280;72646;43.596;1.428;2023-11-19T01:44:12;100375.19;;;20.12;49.52
82872;BME280;72646;43.596;1.428;2023-11-19T01:46:38;100386.00;;;20.13;49.57
82872;BME280;72646;43.596;1.428;2023-11-19T01:49:05;100387.69;;;20.14;49.43
82872;BME280;72646;43.596;1.428;2023-11-19T01:51:31;100385.41;;;20.11;49.53
82872;BME280;72646;43.596;1.428;2023-11-19T01:53:57;100390.31;;;20.21;49.55
82872;BME280;72646;43.596;1.428;2023-11-19T01:56:23;100377.81;;;20.07;49.64
82872;BME280;72646;43.596;1.428;2023-11-19T01:58:50;100377.09;;;20.11;50.01
82872;BME280;72646;43.596;1.428;2023-11-19T02:01:15;100392.84;;;20.22;49.79
82872;BME280;72646;43.596;1.428;2023-11-19T02:03:42;100386.72;;;20.20;49.59
82872;BME280;72646;43.596;1.428;2023-11-19T02:06:07;100385.84;;;20.20;49.54
82872;BME280;72646;43.596;1.428;2023-11-19T02:08:35;100368.16;;;20.09;49.51
82872;BME280;72646;43.596;1.428;2023-11-19T02:11:00;100368.16;;;20.09;49.61
82872;BME280;72646;43.596;1.428;2023-11-19T02:13:27;100391.41;;;20.20;49.78
82872;BME280;72646;43.596;1.428;2023-11-19T02:15:54;100391.75;;;20.23;49.58
82872;BME280;72646;43.596;1.428;2023-11-19T02:18:20;100391.75;;;20.23;49.73
82872;BME280;72646;43.596;1.428;2023-11-19T02:20:48;100386.72;;;20.20;49.53
82872;BME280;72646;43.596;1.428;2023-11-19T02:23:14;100393.69;;;20.23;49.51
82872;BME280;72646;43.596;1.428;2023-11-19T02:25:40;100373.81;;;20.14;49.87
82872;BME280;72646;43.596;1.428;2023-11-19T02:28:06;100382.25;;;20.19;49.95
82872;BME280;72646;43.596;1.428;2023-11-19T02:30:32;100376.34;;;20.16;49.81
82872;BME280;72646;43.596;1.428;2023-11-19T02:33:01;100380.66;;;20.23;49.61
82872;BME280;72646;43.596;1.428;2023-11-19T02:35:31;100376.22;;;20.22;49.68
82872;BME280;72646;43.596;1.428;2023-11-19T02:37:57;100379.00;;;20.22;49.57
82872;BME280;72646;43.596;1.428;2023-11-19T02:40:23;100372.47;;;20.17;49.64
82872;BME280;72646;43.596;1.428;2023-11-19T02:42:50;100377.91;;;20.23;49.68
82872;BME280;72646;43.596;1.428;2023-11-19T02:45:15;100372.59;;;20.22;49.57
82872;BME280;72646;43.596;1.428;2023-11-19T02:47:41;100366.44;;;20.20;49.55
82872;BME280;72646;43.596;1.428;2023-11-19T02:50:12;100371.16;;;20.19;49.65
82872;BME280;72646;43.596;1.428;2023-11-19T02:52:43;100363.91;;;20.18;49.56
82872;BME280;72646;43.596;1.428;2023-11-19T02:55:10;100363.00;;;20.13;49.62
82872;BME280;72646;43.596;1.428;2023-11-19T02:57:38;100365.03;;;20.17;49.73
82872;BME280;72646;43.596;1.428;2023-11-19T03:00:04;100354.44;;;20.14;49.77
82872;BME280;72646;43.596;1.428;2023-11-19T03:02:39;100350.94;;;20.07;50.03
82872;BME280;72646;43.596;1.428;2023-11-19T03:05:10;100363.44;;;20.10;49.68
82872;BME280;72646;43.596;1.428;2023-11-19T03:07:36;100380.06;;;20.21;49.67
82872;BME280;72646;43.596;1.428;2023-11-19T03:10:01;100368.16;;;20.21;49.77
82872;BME280;72646;43.596;1.428;2023-11-19T03:12:27;100364.09;;;20.12;49.52
82872;BME280;72646;43.596;1.428;2023-11-19T03:14:52;100363.34;;;20.16;49.47
82872;BME280;72646;43.596;1.428;2023-11-19T03:17:18;100354.78;;;20.18;49.54
82872;BME280;72646;43.596;1.428;2023-11-19T03:19:43;100362.06;;;20.24;49.49
82872;BME280;72646;43.596;1.428;2023-11-19T03:22:09;100364.03;;;20.23;49.72
82872;BME280;72646;43.596;1.428;2023-11-19T03:24:36;100360.16;;;20.24;49.54
82872;BME280;72646;43.596;1.428;2023-11-19T03:27:01;100359.22;;;20.19;49.45
82872;BME280;72646;43.596;1.428;2023-11-19T03:29:29;100347.03;;;20.20;49.29
82872;BME280;72646;43.596;1.428;2023-11-19T03:31:54;100341.34;;;20.26;48.98
82872;BME280;72646;43.596;1.428;2023-11-19T03:34:20;100354.47;;;20.31;48.97
82872;BME280;72646;43.596;1.428;2023-11-19T03:36:45;100344.13;;;20.26;49.15
82872;BME280;72646;43.596;1.428;2023-11-19T03:39:10;100340.63;;;20.31;49.14
82872;BME280;72646;43.596;1.428;2023-11-19T03:41:36;100349.25;;;20.34;48.85
82872;BME280;72646;43.596;1.428;2023-11-19T03:44:01;100347.34;;;20.35;48.88
82872;BME280;72646;43.596;1.428;2023-11-19T03:46:27;100351.28;;;20.39;48.68
82872;BME280;72646;43.596;1.428;2023-11-19T03:48:55;100329.16;;;20.27;48.80
82872;BME280;72646;43.596;1.428;2023-11-19T03:51:20;100325.22;;;20.23;48.79
82872;BME280;72646;43.596;1.428;2023-11-19T03:53:46;100350.44;;;20.38;48.70
82872;BME280;72646;43.596;1.428;2023-11-19T03:56:12;100327.50;;;20.26;48.78
82872;BME280;72646;43.596;1.428;2023-11-19T03:58:38;100333.13;;;20.31;48.65
82872;BME280;72646;43.596;1.428;2023-11-19T04:01:05;100331.44;;;20.30;48.81
82872;BME280;72646;43.596;1.428;2023-11-19T04:03:30;100322.53;;;20.28;49.09
82872;BME280;72646;43.596;1.428;2023-11-19T04:05:56;100330.25;;;20.26;48.86
82872;BME280;72646;43.596;1.428;2023-11-19T04:08:21;100327.50;;;20.26;48.93
82872;BME280;72646;43.596;1.428;2023-11-19T04:10:47;100344.81;;;20.33;49.02
82872;BME280;72646;43.596;1.428;2023-11-19T04:13:13;100350.84;;;20.30;48.99
82872;BME280;72646;43.596;1.428;2023-11-19T04:15:38;100359.16;;;20.30;49.02
82872;BME280;72646;43.596;1.428;2023-11-19T04:18:04;100338.97;;;20.18;48.81
82872;BME280;72646;43.596;1.428;2023-11-19T04:20:29;100345.13;;;20.20;48.95
82872;BME280;72646;43.596;1.428;2023-11-19T04:22:55;100347.88;;;20.20;49.06
82872;BME280;72646;43.596;1.428;2023-11-19T04:25:21;100359.59;;;20.22;48.95
82872;BME280;72646;43.596;1.428;2023-11-19T04:27:46;100357.31;;;20.19;48.88
82872;BME280;72646;43.596;1.428;2023-11-19T04:30:13;100361.50;;;20.22;49.05
82872;BME280;72646;43.596;1.428;2023-11-19T04:32:39;100358.50;;;20.23;49.04
82872;BME280;72646;43.596;1.428;2023-11-19T04:35:04;100340.31;;;20.16;49.19
82872;BME280;72646;43.596;1.428;2023-11-19T04:37:31;100345.38;;;20.19;49.18
82872;BME280;72646;43.596;1.428;2023-11-19T04:39:57;100343.09;;;20.16;49.46
82872;BME280;72646;43.596;1.428;2023-11-19T04:42:22;100343.94;;;20.16;48.76
82872;BME280;72646;43.596;1.428;2023-11-19T04:44:48;100359.59;;;20.22;49.06
82872;BME280;72646;43.596;1.428;2023-11-19T04:47:13;100350.06;;;20.18;48.85
82872;BME280;72646;43.596;1.428;2023-11-19T04:49:42;100354.28;;;20.21;48.86
82872;BME280;72646;43.596;1.428;2023-11-19T04:52:10;100327.34;;;20.05;48.95
82872;BME280;72646;43.596;1.428;2023-11-19T04:54:41;100336.69;;;20.15;49.00
82872;BME280;72646;43.596;1.428;2023-11-19T04:57:07;100365.13;;;20.22;49.00
82872;BME280;72646;43.596;1.428;2023-11-19T04:59:35;100374.50;;;20.21;48.80
82872;BME280;72646;43.596;1.428;2023-11-19T05:02:01;100368.72;;;20.23;48.70
82872;BME280;72646;43.596;1.428;2023-11-19T05:04:26;100359.59;;;20.11;48.43
82872;BME280;72646;43.596;1.428;2023-11-19T05:06:52;100379.25;;;20.21;48.51
82872;BME280;72646;43.596;1.428;2023-11-19T05:09:18;100365.38;;;20.21;48.53
82872;BME280;72646;43.596;1.428;2023-11-19T05:11:43;100359.47;;;20.17;48.61
82872;BME280;72646;43.596;1.428;2023-11-19T05:14:09;100365.25;;;20.16;48.44
82872;BME280;72646;43.596;1.428;2023-11-19T05:16:34;100371.66;;;20.16;48.64
82872;BME280;72646;43.596;1.428;2023-11-19T05:19:00;100361.53;;;20.10;48.63
82872;BME280;72646;43.596;1.428;2023-11-19T05:21:25;100360.47;;;20.11;48.26
82872;BME280;72646;43.596;1.428;2023-11-19T05:23:51;100367.78;;;20.17;48.86
82872;BME280;72646;43.596;1.428;2023-11-19T05:26:18;100375.75;;;20.14;48.56
82872;BME280;72646;43.596;1.428;2023-11-19T05:28:43;100366.63;;;20.13;48.69
82872;BME280;72646;43.596;1.428;2023-11-19T05:31:09;100362.25;;;20.06;48.53
82872;BME280;72646;43.596;1.428;2023-11-19T05:33:34;100378.03;;;20.17;48.32
82872;BME280;72646;43.596;1.428;2023-11-19T05:36:00;100370.47;;;20.12;48.36
82872;BME280;72646;43.596;1.428;2023-11-19T05:38:28;100358.91;;;20.04;48.38
82872;BME280;72646;43.596;1.428;2023-11-19T05:40:54;100364.31;;;20.10;48.32
82872;BME280;72646;43.596;1.428;2023-11-19T05:43:19;100364.41;;;20.15;48.45
82872;BME280;72646;43.596;1.428;2023-11-19T05:45:44;100343.72;;;20.06;48.47
82872;BME280;72646;43.596;1.428;2023-11-19T05:48:10;100346.59;;;20.11;48.44
82872;BME280;72646;43.596;1.428;2023-11-19T05:50:36;100339.75;;;20.02;48.51
82872;BME280;72646;43.596;1.428;2023-11-19T05:53:01;100339.84;;;20.07;48.54
82872;BME280;72646;43.596;1.428;2023-11-19T05:55:26;100346.50;;;20.06;48.27
82872;BME280;72646;43.596;1.428;2023-11-19T05:57:53;100363.84;;;20.13;48.33
82872;BME280;72646;43.596;1.428;2023-11-19T06:00:19;100373.25;;;20.12;48.27
82872;BME280;72646;43.596;1.428;2023-11-19T06:02:45;100360.91;;;20.08;48.14
82872;BME280;72646;43.596;1.428;2023-11-19T06:05:10;100362.03;;;20.07;48.50
82872;BME280;72646;43.596;1.428;2023-11-19T06:07:36;100365.88;;;20.06;48.45
82872;BME280;72646;43.596;1.428;2023-11-19T06:10:04;100371.31;;;20.13;48.39
82872;BME280;72646;43.596;1.428;2023-11-19T06:12:33;100377.09;;;20.11;48.29
82872;BME280;72646;43.596;1.428;2023-11-19T06:15:03;100373.84;;;20.03;48.51
82872;BME280;72646;43.596;1.428;2023-11-19T06:17:29;100368.78;;;20.00;48.27
82872;BME280;72646;43.596;1.428;2023-11-19T06:19:54;100381.44;;;20.07;48.39
82872;BME280;72646;43.596;1.428;2023-11-19T06:22:20;100377.72;;;20.02;48.41
82872;BME280;72646;43.596;1.428;2023-11-19T06:24:45;100381.91;;;20.04;48.47
82872;BME280;72646;43.596;1.428;2023-11-19T06:27:10;100392.88;;;20.11;48.11
82872;BME280;72646;43.596;1.428;2023-11-19T06:29:36;100383.00;;;20.03;48.19
82872;BME280;72646;43.596;1.428;2023-11-19T06:32:01;100397.81;;;20.09;48.25
82872;BME280;72646;43.596;1.428;2023-11-19T06:34:27;100393.00;;;20.04;48.24
82872;BME280;72646;43.596;1.428;2023-11-19T06:36:52;100406.97;;;20.09;48.22
82872;BME280;72646;43.596;1.428;2023-11-19T06:39:18;100405.28;;;20.08;48.07
82872;BME280;72646;43.596;1.428;2023-11-19T06:41:47;100406.38;;;20.07;48.14
82872;BME280;72646;43.596;1.428;2023-11-19T06:44:12;100407.59;;;20.11;48.04
82872;BME280;72646;43.596;1.428;2023-11-19T06:46:39;100403.09;;;20.10;47.81
82872;BME280;72646;43.596;1.428;2023-11-19T06:49:04;100410.81;;;20.08;47.88
82872;BME280;72646;43.596;1.428;2023-11-19T06:51:29;100406.13;;;20.09;48.25
82872;BME280;72646;43.596;1.428;2023-11-19T06:53:55;100409.00;;;20.14;47.63
82872;BME280;72646;43.596;1.428;2023-11-19T06:56:21;100417.59;;;20.12;47.67
82872;BME280;72646;43.596;1.428;2023-11-19T06:58:47;100404.94;;;20.05;47.69
82872;BME280;72646;43.596;1.428;2023-11-19T07:01:16;100424.66;;;20.20;47.70
82872;BME280;72646;43.596;1.428;2023-11-19T07:03:42;100405.88;;;20.10;47.77
82872;BME280;72646;43.596;1.428;2023-11-19T07:06:07;100422.75;;;20.20;47.77
82872;BME280;72646;43.596;1.428;2023-11-19T07:08:33;100423.59;;;20.21;47.48
82872;BME280;72646;43.596;1.428;2023-11-19T07:10:59;100423.00;;;20.19;47.68
82872;BME280;72646;43.596;1.428;2023-11-19T07:13:24;100431.66;;;20.22;47.42
82872;BME280;72646;43.596;1.428;2023-11-19T07:15:53;100418.19;;;20.14;47.79
82872;BME280;72646;43.596;1.428;2023-11-19T07:18:18;100426.88;;;20.18;47.62
82872;BME280;72646;43.596;1.428;2023-11-19T07:20:44;100425.66;;;20.14;47.40
82872;BME280;72646;43.596;1.428;2023-11-19T07:23:11;100435.88;;;20.25;47.57
82872;BME280;72646;43.596;1.428;2023-11-19T07:25:37;100422.88;;;20.14;47.59
82872;BME280;72646;43.596;1.428;2023-11-19T07:28:03;100432.59;;;20.28;47.59
82872;BME280;72646;43.596;1.428;2023-11-19T07:30:29;100436.56;;;20.32;47.43
82872;BME280;72646;43.596;1.428;2023-11-19T07:32:55;100435.47;;;20.33;47.62
82872;BME280;72646;43.596;1.428;2023-11-19T07:35:20;100439.81;;;20.29;47.39
82872;BME280;72646;43.596;1.428;2023-11-19T07:37:45;100428.91;;;20.22;47.25
82872;BME280;72646;43.596;1.428;2023-11-19T07:40:13;100435.63;;;20.26;47.22
82872;BME280;72646;43.596;1.428;2023-11-19T07:42:38;100447.91;;;20.30;47.43
82872;BME280;72646;43.596;1.428;2023-11-19T07:45:04;100451.78;;;20.29;47.19
82872;BME280;72646;43.596;1.428;2023-11-19T07:47:30;100443.44;;;20.29;47.14
82872;BME280;72646;43.596;1.428;2023-11-19T07:49:56;100442.75;;;20.22;47.32
82872;BME280;72646;43.596;1.428;2023-11-19T07:52:21;100450.56;;;20.25;47.33
82872;BME280;72646;43.596;1.428;2023-11-19T07:54:47;100420.72;;;20.04;47.42
82872;BME280;72646;43.596;1.428;2023-11-19T07:57:12;100453.34;;;20.25;47.42
82872;BME280;72646;43.596;1.428;2023-11-19T07:59:37;100452.75;;;20.23;47.52
82872;BME280;72646;43.596;1.428;2023-11-19T08:02:05;100451.66;;;20.24;47.59
82872;BME280;72646;43.596;1.428;2023-11-19T08:04:30;100456.09;;;20.25;47.80
82872;BME280;72646;43.596;1.428;2023-11-19T08:06:56;100454.66;;;20.23;47.54
82872;BME280;72646;43.596;1.428;2023-11-19T08:09:21;100439.50;;;20.14;47.69
82872;BME280;72646;43.596;1.428;2023-11-19T08:11:48;100456.09;;;20.25;47.70
82872;BME280;72646;43.596;1.428;2023-11-19T08:14:13;100453.25;;;20.20;47.59
82872;BME280;72646;43.596;1.428;2023-11-19T08:16:39;100452.63;;;20.18;47.50
82872;BME280;72646;43.596;1.428;2023-11-19T08:19:05;100458.53;;;20.22;47.74
82872;BME280;72646;43.596;1.428;2023-11-19T08:21:30;100454.09;;;20.21;47.88
82872;BME280;72646;43.596;1.428;2023-11-19T08:23:56;100469.88;;;20.20;48.11
82872;BME280;72646;43.596;1.428;2023-11-19T08:26:21;100471.72;;;20.15;48.09
82872;BME280;72646;43.596;1.428;2023-11-19T08:28:47;100457.38;;;20.06;48.36
82872;BME280;72646;43.596;1.428;2023-11-19T08:31:12;100441.91;;;20.10;48.08
82872;BME280;72646;43.596;1.428;2023-11-19T08:33:38;100471.25;;;20.34;47.90
82872;BME280;72646;43.596;1.428;2023-11-19T08:36:04;100466.09;;;20.38;47.79
82872;BME280;72646;43.596;1.428;2023-11-19T08:38:30;100476.53;;;20.47;47.76
82872;BME280;72646;43.596;1.428;2023-11-19T08:40:55;100475.09;;;20.45;47.88
82872;BME280;72646;43.596;1.428;2023-11-19T08:43:26;100471.81;;;20.48;47.88
82872;BME280;72646;43.596;1.428;2023-11-19T08:45:51;100467.94;;;20.49;47.59
82872;BME280;72646;43.596;1.428;2023-11-19T08:48:16;100481.41;;;20.57;47.64
82872;BME280;72646;43.596;1.428;2023-11-19T08:50:42;100475.53;;;20.53;47.68
82872;BME280;72646;43.596;1.428;2023-11-19T08:53:07;100476.03;;;20.50;47.71
82872;BME280;72646;43.596;1.428;2023-11-19T08:55:32;100483.00;;;20.53;47.93
82872;BME280;72646;43.596;1.428;2023-11-19T08:57:58;100485.09;;;20.46;47.85
82872;BME280;72646;43.596;1.428;2023-11-19T09:00:23;100485.56;;;20.43;48.03
82872;BME280;72646;43.596;1.428;2023-11-19T09:02:49;100482.59;;;20.33;48.48
82872;BME280;72646;43.596;1.428;2023-11-19T09:05:14;100485.13;;;20.34;48.35
82872;BME280;72646;43.596;1.428;2023-11-19T09:07:40;100485.38;;;20.33;48.36
82872;BME280;72646;43.596;1.428;2023-11-19T09:10:05;100485.97;;;20.35;48.29
82872;BME280;72646;43.596;1.428;2023-11-19T09:12:31;100474.66;;;20.36;48.21
82872;BME280;72646;43.596;1.428;2023-11-19T09:14:56;100472.22;;;20.40;47.87
82872;BME280;72646;43.596;1.428;2023-11-19T09:17:22;100468.94;;;20.43;47.80
82872;BME280;72646;43.596;1.428;2023-11-19T09:19:47;100494.72;;;20.55;47.93
82872;BME280;72646;43.596;1.428;2023-11-19T09:22:13;100494.22;;;20.58;47.57
82872;BME280;72646;43.596;1.428;2023-11-19T09:24:38;100487.81;;;20.57;47.64
82872;BME280;72646;43.596;1.428;2023-11-19T09:27:04;100484.78;;;20.59;47.64
82872;BME280;72646;43.596;1.428;2023-11-19T09:29:31;100483.13;;;20.58;47.69
82872;BME280;72646;43.596;1.428;2023-11-19T09:31:57;100483.63;;;20.55;47.91
82872;BME280;72646;43.596;1.428;2023-11-19T09:34:23;100480.22;;;20.53;47.92
82872;BME280;72646;43.596;1.428;2023-11-19T09:36:49;100472.91;;;20.47;47.70
82872;BME280;72646;43.596;1.428;2023-11-19T09:39:14;100472.56;;;20.43;47.83
82872;BME280;72646;43.596;1.428;2023-11-19T09:41:44;100483.75;;;20.48;47.93
82872;BME280;72646;43.596;1.428;2023-11-19T09:44:10;100473.31;;;20.39;47.81
82872;BME280;72646;43.596;1.428;2023-11-19T09:46:40;100474.41;;;20.38;47.91
82872;BME280;72646;43.596;1.428;2023-11-19T09:49:08;100485.00;;;20.41;47.91
82872;BME280;72646;43.596;1.428;2023-11-19T09:51:35;100482.13;;;20.36;48.11
82872;BME280;72646;43.596;1.428;2023-11-19T09:54:00;100484.41;;;20.39;48.33
82872;BME280;72646;43.596;1.428;2023-11-19T09:56:28;100476.81;;;20.34;47.98
82872;BME280;72646;43.596;1.428;2023-11-19T09:58:55;100476.25;;;20.32;47.99
82872;BME280;72646;43.596;1.428;2023-11-19T10:01:21;100485.97;;;20.35;48.03
82872;BME280;72646;43.596;1.428;2023-11-19T10:03:47;100473.97;;;20.29;48.02
82872;BME280;72646;43.596;1.428;2023-11-19T10:06:14;100465.88;;;20.28;48.04
82872;BME280;72646;43.596;1.428;2023-11-19T10:08:41;100460.22;;;20.23;47.87
82872;BME280;72646;43.596;1.428;2023-11-19T10:11:07;100475.38;;;20.32;48.10
82872;BME280;72646;43.596;1.428;2023-11-19T10:13:38;100463.34;;;20.26;48.12
82872;BME280;72646;43.596;1.428;2023-11-19T10:16:07;100460.59;;;20.26;48.08
82872;BME280;72646;43.596;1.428;2023-11-19T10:18:33;100459.72;;;20.26;48.20
82872;BME280;72646;43.596;1.428;2023-11-19T10:21:06;100453.56;;;20.24;48.00
82872;BME280;72646;43.596;1.428;2023-11-19T10:23:51;100460.34;;;20.28;48.09
82872;BME280;72646;43.596;1.428;2023-11-19T10:26:18;100445.91;;;20.14;47.94
82872;BME280;72646;43.596;1.428;2023-11-19T10:28:45;100458.53;;;20.22;48.14
82872;BME280;72646;43.596;1.428;2023-11-19T10:31:15;100427.19;;;20.10;48.16
82872;BME280;72646;43.596;1.428;2023-11-19T10:33:41;100445.16;;;20.19;48.21
82872;BME280;72646;43.596;1.428;2023-11-19T10:36:06;100441.47;;;20.13;48.15
82872;BME280;72646;43.596;1.428;2023-11-19T10:38:32;100439.88;;;20.17;48.36
82872;BME280;72646;43.596;1.428;2023-11-19T10:40:58;100445.78;;;20.21;48.30
82872;BME280;72646;43.596;1.428;2023-11-19T10:43:24;100438.78;;;20.18;48.41
82872;BME280;72646;43.596;1.428;2023-11-19T10:45:50;100446.59;;;20.21;48.35
82872;BME280;72646;43.596;1.428;2023-11-19T10:48:15;100441.06;;;20.21;48.19
82872;BME280;72646;43.596;1.428;2023-11-19T10:50:42;100436.50;;;20.15;48.22
82872;BME280;72646;43.596;1.428;2023-11-19T10:53:10;100441.91;;;20.22;48.27
82872;BME280;72646;43.596;1.428;2023-11-19T10:55:38;100420.59;;;20.11;48.28
82872;BME280;72646;43.596;1.428;2023-11-19T10:58:05;100434.09;;;20.19;48.49
82872;BME280;72646;43.596;1.428;2023-11-19T11:03:19;100433.22;;;20.18;48.47
82872;BME280;72646;43.596;1.428;2023-11-19T11:05:49;100438.78;;;20.18;48.60
82872;BME280;72646;43.596;1.428;2023-11-19T11:08:15;100431.56;;;20.17;48.47
82872;BME280;72646;43.596;1.428;2023-11-19T11:10:55;100438.19;;;20.16;48.43
82872;BME280;72646;43.596;1.428;2023-11-19T11:13:23;100415.78;;;20.06;48.62
82872;BME280;72646;43.596;1.428;2023-11-19T11:15:55;100422.88;;;20.14;48.47
82872;BME280;72646;43.596;1.428;2023-11-19T11:18:23;100415.41;;;20.14;48.57
82872;BME280;72646;43.596;1.428;2023-11-19T11:20:52;100419.03;;;20.15;48.71
82872;BME280;72646;43.596;1.428;2023-11-19T11:31:56;100402.03;;;20.11;48.67
82872;BME280;72646;43.596;1.428;2023-11-19T11:37:39;100396.13;;;20.08;48.88
82872;BME280;72646;43.596;1.428;2023-11-19T11:40:14;100394.44;;;20.07;48.95
82872;BME280;72646;43.596;1.428;2023-11-19T11:42:41;100378.56;;;20.02;48.83
82872;BME280;72646;43.596;1.428;2023-11-19T11:45:08;100391.16;;;20.10;48.76
82872;BME280;72646;43.596;1.428;2023-11-19T11:50:10;100378.41;;;20.09;48.75
82872;BME280;72646;43.596;1.428;2023-11-19T11:55:37;100379.63;;;20.01;48.89
82872;BME280;72646;43.596;1.428;2023-11-19T11:58:20;100375.03;;;20.07;48.86
82872;BME280;72646;43.596;1.428;2023-11-19T12:00:47;100370.25;;;20.02;48.97
82872;BME280;72646;43.596;1.428;2023-11-19T12:03:16;100363.63;;;20.03;48.88
82872;BME280;72646;43.596;1.428;2023-11-19T12:05:45;100360.34;;;20.06;48.83
82872;BME280;72646;43.596;1.428;2023-11-19T12:08:12;100355.78;;;20.00;48.96
82872;BME280;72646;43.596;1.428;2023-11-19T12:10:50;100353.38;;;20.04;49.09
82872;BME280;72646;43.596;1.428;2023-11-19T12:13:17;100358.91;;;20.04;48.98
82872;BME280;72646;43.596;1.428;2023-11-19T12:18:31;100342.41;;;19.97;49.10
82872;BME280;72646;43.596;1.428;2023-11-19T12:20:58;100330.16;;;19.93;48.94
82872;BME280;72646;43.596;1.428;2023-11-19T12:23:31;100339.75;;;20.02;48.96
82872;BME280;72646;43.596;1.428;2023-11-19T12:25:59;100326.28;;;19.94;49.08
82872;BME280;72646;43.596;1.428;2023-11-19T12:28:25;100339.16;;;20.00;48.96
82872;BME280;72646;43.596;1.428;2023-11-19T12:30:52;100333.38;;;20.02;48.88
82872;BME280;72646;43.596;1.428;2023-11-19T12:33:21;100321.59;;;19.95;48.95
82872;BME280;72646;43.596;1.428;2023-11-19T12:35:47;100331.44;;;20.02;49.09
82872;BME280;72646;43.596;1.428;2023-11-19T12:38:23;100324.63;;;19.93;48.97
82872;BME280;72646;43.596;1.428;2023-11-19T12:41:05;100336.13;;;20.02;49.08
82872;BME280;72646;43.596;1.428;2023-11-19T12:43:30;100323.63;;;19.99;48.90
82872;BME280;72646;43.596;1.428;2023-11-19T12:45:56;100336.13;;;20.02;48.84
82872;BME280;72646;43.596;1.428;2023-11-19T12:48:22;100324.94;;;19.97;49.09
82872;BME280;72646;43.596;1.428;2023-11-19T12:50:58;100326.41;;;19.99;49.15
82872;BME280;72646;43.596;1.428;2023-11-19T12:53:25;100325.91;;;20.02;49.02
82872;BME280;72646;43.596;1.428;2023-11-19T12:55:51;100323.28;;;19.96;49.16
82872;BME280;72646;43.596;1.428;2023-11-19T13:01:05;100324.19;;;20.01;49.02
82872;BME280;72646;43.596;1.428;2023-11-19T13:03:32;100310.59;;;20.00;48.95
82872;BME280;72646;43.596;1.428;2023-11-19T13:06:05;100301.28;;;19.89;49.05
82872;BME280;72646;43.596;1.428;2023-11-19T13:08:37;100309.78;;;19.99;49.09
82872;BME280;72646;43.596;1.428;2023-11-19T13:11:03;100299.19;;;19.96;49.20
82872;BME280;72646;43.596;1.428;2023-11-19T13:13:29;100285.22;;;19.91;49.06